sensor_id;sensor_type;location;lat;lon;timestamp;P1;durP1;ratioP1;P2;durP2;ratioP2
12721;SDS011;6425;50.316;8.114;2023-04-29T00:00:00;3.8;;;3.6;;
12721;SDS011;6425;50.316;8.114;2023-04-29T00:03:00;4.7;;;4.4;;
12721;SDS011;6425;50.316;8.114;2023-04-29T00:06:00;4.7;;;4.4;;
12721;SDS011;6425;50.316;8.114;2023-04-29T00:09:00;4.4;;;4.1;;
12721;SDS011;6425;50.316;8.114;2023-04-29T00:12:00;4.4;;;4.1;;
12721;SDS011;6425;50.316;8.114;2023-04-29T00:15:00;4.3;;;3.9;;
12721;SDS011;6425;50.316;8.114;2023-04-29T00:18:00;3.9;;;3.7;;
12721;SDS011;6425;50.316;8.114;2023-04-29T00:21:00;3.9;;;3.7;;
12721;SDS011;6425;50.316;8.114;2023-04-29T00:24:00;3.6;;;3.3;;
12721;SDS011;6425;50.316;8.114;2023-04-29T00:27:00;3.6;;;3.3;;
12721;SDS011;6425;50.316;8.114;2023-04-29T00:30:00;3.6;;;3.3;;
12721;SDS011;6425;50.316;8.114;2023-04-29T00:33:00;3.5;;;3.2;;
12721;SDS011;6425;50.316;8.114;2023-04-29T00:36:00;3.5;;;3.2;;
12721;SDS011;6425;50.316;8.114;2023-04-29T00:39:00;4.8;;;2.7;;
12721;SDS011;6425;50.316;8.114;2023-04-29T00:42:00;4.8;;;2.7;;
12721;SDS011;6425;50.316;8.114;2023-04-29T00:45:00;5.9;;;3.5;;
12721;SDS011;6425;50.316;8.114;2023-04-29T00:48:00;2.9;;;2.7;;
12721;SDS011;6425;50.316;8.114;2023-04-29T00:51:00;2.9;;;2.7;;
12721;SDS011;6425;50.316;8.114;2023-04-29T00:54:00;4.3;;;3.5;;
12721;SDS011;6425;50.316;8.114;2023-04-29T00:57:00;4.3;;;3.7;;
12721;SDS011;6425;50.316;8.114;2023-04-29T01:00:00;4.4;;;4;;
12721;SDS011;6425;50.316;8.114;2023-04-29T01:03:00;5.6;;;5.1;;
12721;SDS011;6425;50.316;8.114;2023-04-29T01:06:03;5.6;;;5.1;;
12721;SDS011;6425;50.316;8.114;2023-04-29T01:09:04;5;;;4.6;;
12721;SDS011;6425;50.316;8.114;2023-04-29T01:12:04;5.8;;;5.3;;
12721;SDS011;6425;50.316;8.114;2023-04-29T01:15:02;5.8;;;5.3;;
12721;SDS011;6425;50.316;8.114;2023-04-29T01:18:04;5.8;;;5.2;;
12721;SDS011;6425;50.316;8.114;2023-04-29T01:21:00;5.8;;;5.2;;
12721;SDS011;6425;50.316;8.114;2023-04-29T01:24:00;7.5;;;6.8;;
12721;SDS011;6425;50.316;8.114;2023-04-29T01:27:01;8.1;;;7.3;;
12721;SDS011;6425;50.316;8.114;2023-04-29T01:30:01;8.1;;;7.3;;
12721;SDS011;6425;50.316;8.114;2023-04-29T01:33:02;9.1;;;8;;
12721;SDS011;6425;50.316;8.114;2023-04-29T01:36:04;9.1;;;8;;
12721;SDS011;6425;50.316;8.114;2023-04-29T01:39:02;10.5;;;9;;
12721;SDS011;6425;50.316;8.114;2023-04-29T01:42:01;12;;;9.3;;
12721;SDS011;6425;50.316;8.114;2023-04-29T01:45:00;12;;;9.3;;
12721;SDS011;6425;50.316;8.114;2023-04-29T01:48:00;12.7;;;9.6;;
12721;SDS011;6425;50.316;8.114;2023-04-29T01:51:00;12.7;;;9.6;;
12721;SDS011;6425;50.316;8.114;2023-04-29T01:54:00;11.6;;;10.4;;
12721;SDS011;6425;50.316;8.114;2023-04-29T01:57:00;15.6;;;13.3;;
12721;SDS011;6425;50.316;8.114;2023-04-29T02:00:00;15.6;;;13.3;;
12721;SDS011;6425;50.316;8.114;2023-04-29T02:03:00;19.3;;;13.6;;
12721;SDS011;6425;50.316;8.114;2023-04-29T02:06:00;19.3;;;13.6;;
12721;SDS011;6425;50.316;8.114;2023-04-29T02:09:00;18.1;;;16.2;;
12721;SDS011;6425;50.316;8.114;2023-04-29T02:12:00;19.3;;;16.9;;
12721;SDS011;6425;50.316;8.114;2023-04-29T02:15:00;19.3;;;16.9;;
12721;SDS011;6425;50.316;8.114;2023-04-29T02:18:00;20.9;;;16.6;;
12721;SDS011;6425;50.316;8.114;2023-04-29T02:21:00;20.9;;;16.6;;
12721;SDS011;6425;50.316;8.114;2023-04-29T02:24:00;19;;;15.6;;
12721;SDS011;6425;50.316;8.114;2023-04-29T02:27:00;19.5;;;16.3;;
12721;SDS011;6425;50.316;8.114;2023-04-29T02:30:00;19.5;;;16.3;;
12721;SDS011;6425;50.316;8.114;2023-04-29T02:33:00;19.9;;;16.4;;
12721;SDS011;6425;50.316;8.114;2023-04-29T02:36:00;19.9;;;16.4;;
12721;SDS011;6425;50.316;8.114;2023-04-29T02:39:00;20.8;;;16.9;;
12721;SDS011;6425;50.316;8.114;2023-04-29T02:42:00;22.6;;;19.1;;
12721;SDS011;6425;50.316;8.114;2023-04-29T02:45:00;22.6;;;19.1;;
12721;SDS011;6425;50.316;8.114;2023-04-29T02:48:00;23.2;;;19.3;;
12721;SDS011;6425;50.316;8.114;2023-04-29T02:51:00;23.2;;;19.3;;
12721;SDS011;6425;50.316;8.114;2023-04-29T02:54:00;22.3;;;18.5;;
12721;SDS011;6425;50.316;8.114;2023-04-29T02:57:00;21.2;;;17.6;;
12721;SDS011;6425;50.316;8.114;2023-04-29T03:00:00;21.2;;;17.6;;
12721;SDS011;6425;50.316;8.114;2023-04-29T03:03:00;24.7;;;19.7;;
12721;SDS011;6425;50.316;8.114;2023-04-29T03:06:00;24.7;;;19.7;;
12721;SDS011;6425;50.316;8.114;2023-04-29T03:09:00;26;;;19.9;;
12721;SDS011;6425;50.316;8.114;2023-04-29T03:12:00;25.2;;;19.2;;
12721;SDS011;6425;50.316;8.114;2023-04-29T03:15:00;25.2;;;19.2;;
12721;SDS011;6425;50.316;8.114;2023-04-29T03:18:00;31;;;22.6;;
12721;SDS011;6425;50.316;8.114;2023-04-29T03:21:00;31;;;22.6;;
12721;SDS011;6425;50.316;8.114;2023-04-29T03:24:00;28.2;;;22.5;;
12721;SDS011;6425;50.316;8.114;2023-04-29T03:27:00;28.2;;;21.6;;
12721;SDS011;6425;50.316;8.114;2023-04-29T03:30:00;28.2;;;21.6;;
12721;SDS011;6425;50.316;8.114;2023-04-29T03:33:00;30.1;;;21.7;;
12721;SDS011;6425;50.316;8.114;2023-04-29T03:36:00;30.1;;;21.7;;
12721;SDS011;6425;50.316;8.114;2023-04-29T03:39:00;28.6;;;21.6;;
12721;SDS011;6425;50.316;8.114;2023-04-29T03:42:00;29.7;;;21.5;;
12721;SDS011;6425;50.316;8.114;2023-04-29T03:45:00;29.7;;;21.5;;
12721;SDS011;6425;50.316;8.114;2023-04-29T03:48:00;26.9;;;18.1;;
12721;SDS011;6425;50.316;8.114;2023-04-29T03:51:00;26.9;;;18.1;;
12721;SDS011;6425;50.316;8.114;2023-04-29T03:54:00;26.3;;;18;;
12721;SDS011;6425;50.316;8.114;2023-04-29T03:57:00;22;;;16.7;;
12721;SDS011;6425;50.316;8.114;2023-04-29T04:00:00;22;;;16.7;;
12721;SDS011;6425;50.316;8.114;2023-04-29T04:03:00;22.5;;;15.6;;
12721;SDS011;6425;50.316;8.114;2023-04-29T04:06:00;22.5;;;15.6;;
12721;SDS011;6425;50.316;8.114;2023-04-29T04:09:00;21.7;;;15.1;;
12721;SDS011;6425;50.316;8.114;2023-04-29T04:12:00;20.4;;;15.6;;
12721;SDS011;6425;50.316;8.114;2023-04-29T04:15:00;20.4;;;15.6;;
12721;SDS011;6425;50.316;8.114;2023-04-29T04:18:00;22.2;;;15.3;;
12721;SDS011;6425;50.316;8.114;2023-04-29T04:21:03;22.2;;;15.3;;
12721;SDS011;6425;50.316;8.114;2023-04-29T04:24:00;22.2;;;15.7;;
12721;SDS011;6425;50.316;8.114;2023-04-29T04:27:00;20.5;;;15.5;;
12721;SDS011;6425;50.316;8.114;2023-04-29T04:30:00;20.5;;;15.5;;
12721;SDS011;6425;50.316;8.114;2023-04-29T04:33:00;21.8;;;14.9;;
12721;SDS011;6425;50.316;8.114;2023-04-29T04:36:00;21.8;;;14.9;;
12721;SDS011;6425;50.316;8.114;2023-04-29T04:39:00;20.7;;;14.3;;
12721;SDS011;6425;50.316;8.114;2023-04-29T04:42:00;20.8;;;14.7;;
12721;SDS011;6425;50.316;8.114;2023-04-29T04:45:00;20.8;;;14.7;;
12721;SDS011;6425;50.316;8.114;2023-04-29T04:48:00;20.9;;;14.3;;
12721;SDS011;6425;50.316;8.114;2023-04-29T04:51:05;20.3;;;13.1;;
12721;SDS011;6425;50.316;8.114;2023-04-29T04:54:00;20.3;;;13.1;;
12721;SDS011;6425;50.316;8.114;2023-04-29T04:57:00;20.9;;;14.6;;
12721;SDS011;6425;50.316;8.114;2023-04-29T05:00:00;20.9;;;14.6;;
12721;SDS011;6425;50.316;8.114;2023-04-29T05:03:00;19.4;;;13.5;;
12721;SDS011;6425;50.316;8.114;2023-04-29T05:06:00;19.3;;;13;;
12721;SDS011;6425;50.316;8.114;2023-04-29T05:09:00;19.3;;;13;;
12721;SDS011;6425;50.316;8.114;2023-04-29T05:12:00;17.4;;;11.7;;
12721;SDS011;6425;50.316;8.114;2023-04-29T05:15:00;17.4;;;11.7;;
12721;SDS011;6425;50.316;8.114;2023-04-29T05:18:00;15.8;;;10.9;;
12721;SDS011;6425;50.316;8.114;2023-04-29T05:21:00;16.5;;;10.8;;
12721;SDS011;6425;50.316;8.114;2023-04-29T05:24:00;16.5;;;10.8;;
12721;SDS011;6425;50.316;8.114;2023-04-29T05:27:00;14.8;;;9.4;;
12721;SDS011;6425;50.316;8.114;2023-04-29T05:30:00;14.8;;;9.4;;
12721;SDS011;6425;50.316;8.114;2023-04-29T05:33:00;14.5;;;10.2;;
12721;SDS011;6425;50.316;8.114;2023-04-29T05:36:00;14.7;;;10.1;;
12721;SDS011;6425;50.316;8.114;2023-04-29T05:39:00;14.7;;;10.1;;
12721;SDS011;6425;50.316;8.114;2023-04-29T05:42:00;18.2;;;12.1;;
12721;SDS011;6425;50.316;8.114;2023-04-29T05:45:00;18.2;;;12.1;;
12721;SDS011;6425;50.316;8.114;2023-04-29T05:48:00;19.7;;;14;;
12721;SDS011;6425;50.316;8.114;2023-04-29T05:51:00;21.4;;;13.7;;
12721;SDS011;6425;50.316;8.114;2023-04-29T05:54:00;21.4;;;13.7;;
12721;SDS011;6425;50.316;8.114;2023-04-29T05:57:00;18.6;;;12.1;;
12721;SDS011;6425;50.316;8.114;2023-04-29T06:00:00;18.6;;;12.1;;
12721;SDS011;6425;50.316;8.114;2023-04-29T06:03:00;18.5;;;12.9;;
12721;SDS011;6425;50.316;8.114;2023-04-29T06:06:00;18.8;;;13.6;;
12721;SDS011;6425;50.316;8.114;2023-04-29T06:09:00;18.8;;;13.6;;
12721;SDS011;6425;50.316;8.114;2023-04-29T06:12:00;19.3;;;12.5;;
12721;SDS011;6425;50.316;8.114;2023-04-29T06:15:00;19.3;;;12.5;;
12721;SDS011;6425;50.316;8.114;2023-04-29T06:18:00;19.7;;;14.5;;
12721;SDS011;6425;50.316;8.114;2023-04-29T06:21:00;21.5;;;15;;
12721;SDS011;6425;50.316;8.114;2023-04-29T06:24:00;21.5;;;15;;
12721;SDS011;6425;50.316;8.114;2023-04-29T06:27:00;19.7;;;13.3;;
12721;SDS011;6425;50.316;8.114;2023-04-29T06:30:00;19.7;;;13.3;;
12721;SDS011;6425;50.316;8.114;2023-04-29T06:33:00;17.7;;;12.4;;
12721;SDS011;6425;50.316;8.114;2023-04-29T06:36:00;17.7;;;13.5;;
12721;SDS011;6425;50.316;8.114;2023-04-29T06:39:00;17.7;;;13.5;;
12721;SDS011;6425;50.316;8.114;2023-04-29T06:42:00;17.6;;;12;;
12721;SDS011;6425;50.316;8.114;2023-04-29T06:45:00;17.6;;;12;;
12721;SDS011;6425;50.316;8.114;2023-04-29T06:48:00;18.6;;;12.9;;
12721;SDS011;6425;50.316;8.114;2023-04-29T06:51:00;19.5;;;13.9;;
12721;SDS011;6425;50.316;8.114;2023-04-29T06:54:00;19.5;;;13.9;;
12721;SDS011;6425;50.316;8.114;2023-04-29T06:57:00;18;;;13.6;;
12721;SDS011;6425;50.316;8.114;2023-04-29T07:00:00;18;;;13.6;;
12721;SDS011;6425;50.316;8.114;2023-04-29T07:03:00;21;;;14.9;;
12721;SDS011;6425;50.316;8.114;2023-04-29T07:06:00;21.5;;;16.1;;
12721;SDS011;6425;50.316;8.114;2023-04-29T07:09:00;21.5;;;16.1;;
12721;SDS011;6425;50.316;8.114;2023-04-29T07:12:00;24.4;;;16.8;;
12721;SDS011;6425;50.316;8.114;2023-04-29T07:15:00;24.4;;;16.8;;
12721;SDS011;6425;50.316;8.114;2023-04-29T07:18:00;26.1;;;18;;
12721;SDS011;6425;50.316;8.114;2023-04-29T07:21:00;29.8;;;18.9;;
12721;SDS011;6425;50.316;8.114;2023-04-29T07:24:00;29.8;;;18.9;;
12721;SDS011;6425;50.316;8.114;2023-04-29T07:27:00;24.1;;;16.8;;
12721;SDS011;6425;50.316;8.114;2023-04-29T07:30:00;24.1;;;16.8;;
12721;SDS011;6425;50.316;8.114;2023-04-29T07:33:00;23.6;;;16;;
12721;SDS011;6425;50.316;8.114;2023-04-29T07:36:00;28.8;;;17.6;;
12721;SDS011;6425;50.316;8.114;2023-04-29T07:39:00;28.8;;;17.6;;
12721;SDS011;6425;50.316;8.114;2023-04-29T07:42:00;25;;;17;;
12721;SDS011;6425;50.316;8.114;2023-04-29T07:45:00;25;;;17;;
12721;SDS011;6425;50.316;8.114;2023-04-29T07:48:00;24.8;;;17.2;;
12721;SDS011;6425;50.316;8.114;2023-04-29T07:51:00;23.3;;;15.9;;
12721;SDS011;6425;50.316;8.114;2023-04-29T07:54:00;23.3;;;15.9;;
12721;SDS011;6425;50.316;8.114;2023-04-29T07:57:00;23.4;;;16.7;;
12721;SDS011;6425;50.316;8.114;2023-04-29T08:00:00;23.4;;;16.7;;
12721;SDS011;6425;50.316;8.114;2023-04-29T08:03:00;23.6;;;16.9;;
12721;SDS011;6425;50.316;8.114;2023-04-29T08:06:00;27.6;;;18;;
12721;SDS011;6425;50.316;8.114;2023-04-29T08:09:00;27.6;;;18;;
12721;SDS011;6425;50.316;8.114;2023-04-29T08:12:00;23.2;;;16.2;;
12721;SDS011;6425;50.316;8.114;2023-04-29T08:15:00;23.1;;;16;;
12721;SDS011;6425;50.316;8.114;2023-04-29T08:18:00;22.9;;;15.5;;
12721;SDS011;6425;50.316;8.114;2023-04-29T08:21:00;22.3;;;14.9;;
12721;SDS011;6425;50.316;8.114;2023-04-29T08:24:00;22.3;;;14.9;;
12721;SDS011;6425;50.316;8.114;2023-04-29T08:27:00;25;;;16.9;;
12721;SDS011;6425;50.316;8.114;2023-04-29T08:30:00;34.4;;;26.2;;
12721;SDS011;6425;50.316;8.114;2023-04-29T08:33:00;34.4;;;26.2;;
12721;SDS011;6425;50.316;8.114;2023-04-29T08:36:00;21.9;;;15.4;;
12721;SDS011;6425;50.316;8.114;2023-04-29T08:39:00;21.9;;;15.4;;
12721;SDS011;6425;50.316;8.114;2023-04-29T08:42:00;20.6;;;14.3;;
12721;SDS011;6425;50.316;8.114;2023-04-29T08:45:00;16.3;;;11.7;;
12721;SDS011;6425;50.316;8.114;2023-04-29T08:48:00;16.3;;;11.7;;
12721;SDS011;6425;50.316;8.114;2023-04-29T08:51:00;12.6;;;10.2;;
12721;SDS011;6425;50.316;8.114;2023-04-29T08:54:00;12.6;;;10.2;;
12721;SDS011;6425;50.316;8.114;2023-04-29T08:57:00;11.4;;;9.8;;
12721;SDS011;6425;50.316;8.114;2023-04-29T09:00:00;13.9;;;10.5;;
12721;SDS011;6425;50.316;8.114;2023-04-29T09:03:00;13.9;;;10.5;;
12721;SDS011;6425;50.316;8.114;2023-04-29T09:06:00;21.3;;;15.1;;
12721;SDS011;6425;50.316;8.114;2023-04-29T09:09:00;21.3;;;15.1;;
12721;SDS011;6425;50.316;8.114;2023-04-29T09:12:00;12.7;;;10.5;;
12721;SDS011;6425;50.316;8.114;2023-04-29T09:15:00;9.5;;;8.5;;
12721;SDS011;6425;50.316;8.114;2023-04-29T09:18:00;9.5;;;8.5;;
12721;SDS011;6425;50.316;8.114;2023-04-29T09:21:03;10.9;;;8.9;;
12721;SDS011;6425;50.316;8.114;2023-04-29T09:24:00;10.9;;;8.9;;
12721;SDS011;6425;50.316;8.114;2023-04-29T09:27:00;9.4;;;7.4;;
12721;SDS011;6425;50.316;8.114;2023-04-29T09:30:00;12.6;;;8.3;;
12721;SDS011;6425;50.316;8.114;2023-04-29T09:33:03;12.6;;;8.3;;
12721;SDS011;6425;50.316;8.114;2023-04-29T09:36:00;12.9;;;8.5;;
12721;SDS011;6425;50.316;8.114;2023-04-29T09:39:00;12.9;;;8.5;;
12721;SDS011;6425;50.316;8.114;2023-04-29T09:42:00;12;;;9.5;;
12721;SDS011;6425;50.316;8.114;2023-04-29T09:45:00;10;;;7.8;;
12721;SDS011;6425;50.316;8.114;2023-04-29T09:48:00;10;;;7.8;;
12721;SDS011;6425;50.316;8.114;2023-04-29T09:51:00;9;;;6.8;;
12721;SDS011;6425;50.316;8.114;2023-04-29T09:54:00;9;;;6.8;;
12721;SDS011;6425;50.316;8.114;2023-04-29T09:57:00;9.2;;;7.9;;
12721;SDS011;6425;50.316;8.114;2023-04-29T10:00:00;7.4;;;6.8;;
12721;SDS011;6425;50.316;8.114;2023-04-29T10:03:00;7.4;;;6.8;;
12721;SDS011;6425;50.316;8.114;2023-04-29T10:06:00;9.2;;;8.2;;
12721;SDS011;6425;50.316;8.114;2023-04-29T10:09:00;9.2;;;8.2;;
12721;SDS011;6425;50.316;8.114;2023-04-29T10:12:00;9;;;8.1;;
12721;SDS011;6425;50.316;8.114;2023-04-29T10:15:01;7.6;;;6.5;;
12721;SDS011;6425;50.316;8.114;2023-04-29T10:18:02;7.6;;;6.5;;
12721;SDS011;6425;50.316;8.114;2023-04-29T10:21:00;8.2;;;7.3;;
12721;SDS011;6425;50.316;8.114;2023-04-29T10:24:00;8.2;;;7.3;;
12721;SDS011;6425;50.316;8.114;2023-04-29T10:27:00;10.6;;;8;;
12721;SDS011;6425;50.316;8.114;2023-04-29T10:30:00;8.6;;;7.5;;
12721;SDS011;6425;50.316;8.114;2023-04-29T10:33:00;8.6;;;7.5;;
12721;SDS011;6425;50.316;8.114;2023-04-29T10:36:00;8.4;;;6.6;;
12721;SDS011;6425;50.316;8.114;2023-04-29T10:39:00;8.4;;;6.6;;
12721;SDS011;6425;50.316;8.114;2023-04-29T10:42:00;7.1;;;6.4;;
12721;SDS011;6425;50.316;8.114;2023-04-29T10:45:31;6.8;;;6.2;;
12721;SDS011;6425;50.316;8.114;2023-04-29T10:48:07;6.8;;;6.2;;
12721;SDS011;6425;50.316;8.114;2023-04-29T10:51:00;7.4;;;6.7;;
12721;SDS011;6425;50.316;8.114;2023-04-29T10:54:00;7.4;;;6.7;;
12721;SDS011;6425;50.316;8.114;2023-04-29T10:57:00;8.5;;;7.7;;
12721;SDS011;6425;50.316;8.114;2023-04-29T11:00:00;9.2;;;8.3;;
12721;SDS011;6425;50.316;8.114;2023-04-29T11:03:00;9.2;;;8.3;;
12721;SDS011;6425;50.316;8.114;2023-04-29T11:06:07;8.4;;;7.6;;
12721;SDS011;6425;50.316;8.114;2023-04-29T11:09:00;8.4;;;7.6;;
12721;SDS011;6425;50.316;8.114;2023-04-29T11:12:00;9;;;8.1;;
12721;SDS011;6425;50.316;8.114;2023-04-29T11:15:00;9.3;;;8.4;;
12721;SDS011;6425;50.316;8.114;2023-04-29T11:18:00;9.3;;;8.4;;
12721;SDS011;6425;50.316;8.114;2023-04-29T11:21:15;9.1;;;8.3;;
12721;SDS011;6425;50.316;8.114;2023-04-29T11:24:00;9.1;;;8.3;;
12721;SDS011;6425;50.316;8.114;2023-04-29T11:27:00;9.5;;;8.6;;
12721;SDS011;6425;50.316;8.114;2023-04-29T11:30:00;9.6;;;8.8;;
12721;SDS011;6425;50.316;8.114;2023-04-29T11:33:00;9.6;;;8.8;;
12721;SDS011;6425;50.316;8.114;2023-04-29T11:36:00;9.1;;;8.3;;
12721;SDS011;6425;50.316;8.114;2023-04-29T11:39:00;9.1;;;8.3;;
12721;SDS011;6425;50.316;8.114;2023-04-29T11:42:03;10;;;9.1;;
12721;SDS011;6425;50.316;8.114;2023-04-29T11:45:00;13.6;;;11.2;;
12721;SDS011;6425;50.316;8.114;2023-04-29T11:48:00;13.6;;;11.2;;
12721;SDS011;6425;50.316;8.114;2023-04-29T11:51:00;11.5;;;9.7;;
12721;SDS011;6425;50.316;8.114;2023-04-29T11:54:00;11.5;;;9.7;;
12721;SDS011;6425;50.316;8.114;2023-04-29T11:57:00;9;;;8.1;;
12721;SDS011;6425;50.316;8.114;2023-04-29T12:00:00;9.6;;;8.7;;
12721;SDS011;6425;50.316;8.114;2023-04-29T12:03:00;9.6;;;8.7;;
12721;SDS011;6425;50.316;8.114;2023-04-29T12:06:00;10.4;;;8.8;;
12721;SDS011;6425;50.316;8.114;2023-04-29T12:09:00;10.4;;;8.9;;
12721;SDS011;6425;50.316;8.114;2023-04-29T12:12:00;10.4;;;9.4;;
12721;SDS011;6425;50.316;8.114;2023-04-29T12:15:00;13.1;;;11.9;;
12721;SDS011;6425;50.316;8.114;2023-04-29T12:18:00;13.1;;;11.9;;
12721;SDS011;6425;50.316;8.114;2023-04-29T12:21:00;14.3;;;12.2;;
12721;SDS011;6425;50.316;8.114;2023-04-29T12:24:01;12.3;;;11;;
12721;SDS011;6425;50.316;8.114;2023-04-29T12:27:00;12.3;;;11;;
12721;SDS011;6425;50.316;8.114;2023-04-29T12:30:00;12.5;;;11.2;;
12721;SDS011;6425;50.316;8.114;2023-04-29T12:33:01;12.5;;;11.2;;
12721;SDS011;6425;50.316;8.114;2023-04-29T12:36:00;14.1;;;12.3;;
12721;SDS011;6425;50.316;8.114;2023-04-29T12:39:00;15;;;13.4;;
12721;SDS011;6425;50.316;8.114;2023-04-29T12:42:00;15;;;13.4;;
12721;SDS011;6425;50.316;8.114;2023-04-29T12:45:00;14.8;;;13.2;;
12721;SDS011;6425;50.316;8.114;2023-04-29T12:48:00;14.8;;;13.2;;
12721;SDS011;6425;50.316;8.114;2023-04-29T12:51:00;14.9;;;12.9;;
12721;SDS011;6425;50.316;8.114;2023-04-29T12:54:00;19;;;16.2;;
12721;SDS011;6425;50.316;8.114;2023-04-29T12:57:00;19;;;16.2;;
12721;SDS011;6425;50.316;8.114;2023-04-29T13:00:00;20.1;;;17.3;;
12721;SDS011;6425;50.316;8.114;2023-04-29T13:03:00;20.1;;;17.3;;
12721;SDS011;6425;50.316;8.114;2023-04-29T13:06:00;18.9;;;15.6;;
12721;SDS011;6425;50.316;8.114;2023-04-29T13:09:00;18.8;;;15.7;;
12721;SDS011;6425;50.316;8.114;2023-04-29T13:12:00;18.8;;;15.7;;
12721;SDS011;6425;50.316;8.114;2023-04-29T13:15:00;15.7;;;13.8;;
12721;SDS011;6425;50.316;8.114;2023-04-29T13:18:00;15.7;;;13.8;;
12721;SDS011;6425;50.316;8.114;2023-04-29T13:21:00;15.1;;;12.6;;
12721;SDS011;6425;50.316;8.114;2023-04-29T13:24:00;14.7;;;13.1;;
12721;SDS011;6425;50.316;8.114;2023-04-29T13:27:00;14.7;;;13.1;;
12721;SDS011;6425;50.316;8.114;2023-04-29T13:30:00;16.6;;;13;;
12721;SDS011;6425;50.316;8.114;2023-04-29T13:33:00;16.6;;;13;;
12721;SDS011;6425;50.316;8.114;2023-04-29T13:36:00;17.3;;;13.6;;
12721;SDS011;6425;50.316;8.114;2023-04-29T13:39:00;17.6;;;14.9;;
12721;SDS011;6425;50.316;8.114;2023-04-29T13:42:00;17.6;;;14.9;;
12721;SDS011;6425;50.316;8.114;2023-04-29T13:45:00;18;;;13.6;;
12721;SDS011;6425;50.316;8.114;2023-04-29T13:48:00;18;;;13.6;;
12721;SDS011;6425;50.316;8.114;2023-04-29T13:51:00;16.4;;;13.8;;
12721;SDS011;6425;50.316;8.114;2023-04-29T13:54:00;18.3;;;14.4;;
12721;SDS011;6425;50.316;8.114;2023-04-29T13:57:00;18.3;;;14.4;;
12721;SDS011;6425;50.316;8.114;2023-04-29T14:00:00;16.7;;;13.5;;
12721;SDS011;6425;50.316;8.114;2023-04-29T14:03:00;16.7;;;13.5;;
12721;SDS011;6425;50.316;8.114;2023-04-29T14:06:00;15.3;;;13;;
12721;SDS011;6425;50.316;8.114;2023-04-29T14:09:00;15.1;;;12.8;;
12721;SDS011;6425;50.316;8.114;2023-04-29T14:12:00;15.1;;;12.8;;
12721;SDS011;6425;50.316;8.114;2023-04-29T14:15:00;14.8;;;11.9;;
12721;SDS011;6425;50.316;8.114;2023-04-29T14:18:00;14.8;;;11.9;;
12721;SDS011;6425;50.316;8.114;2023-04-29T14:21:00;14.5;;;12.6;;
12721;SDS011;6425;50.316;8.114;2023-04-29T14:24:00;17.1;;;14.3;;
12721;SDS011;6425;50.316;8.114;2023-04-29T14:27:00;17.1;;;14.3;;
12721;SDS011;6425;50.316;8.114;2023-04-29T14:30:00;18.9;;;14.7;;
12721;SDS011;6425;50.316;8.114;2023-04-29T14:33:00;18.9;;;14.7;;
12721;SDS011;6425;50.316;8.114;2023-04-29T14:36:00;22.1;;;17.9;;
12721;SDS011;6425;50.316;8.114;2023-04-29T14:39:00;24;;;17.9;;
12721;SDS011;6425;50.316;8.114;2023-04-29T14:42:00;24;;;17.9;;
12721;SDS011;6425;50.316;8.114;2023-04-29T14:45:00;23;;;16.8;;
12721;SDS011;6425;50.316;8.114;2023-04-29T14:48:00;23;;;16.8;;
12721;SDS011;6425;50.316;8.114;2023-04-29T14:51:00;23.9;;;18.4;;
12721;SDS011;6425;50.316;8.114;2023-04-29T14:54:00;26.3;;;19.6;;
12721;SDS011;6425;50.316;8.114;2023-04-29T14:57:00;26.3;;;19.6;;
12721;SDS011;6425;50.316;8.114;2023-04-29T15:00:00;19.5;;;14.8;;
12721;SDS011;6425;50.316;8.114;2023-04-29T15:03:00;19.5;;;14.8;;
12721;SDS011;6425;50.316;8.114;2023-04-29T15:06:00;20.8;;;14.5;;
12721;SDS011;6425;50.316;8.114;2023-04-29T15:09:00;18.4;;;13.7;;
12721;SDS011;6425;50.316;8.114;2023-04-29T15:12:00;18.4;;;13.7;;
12721;SDS011;6425;50.316;8.114;2023-04-29T15:15:00;18.3;;;14.7;;
12721;SDS011;6425;50.316;8.114;2023-04-29T15:18:00;18.3;;;14.7;;
12721;SDS011;6425;50.316;8.114;2023-04-29T15:21:00;17.9;;;13.2;;
12721;SDS011;6425;50.316;8.114;2023-04-29T15:24:00;18.4;;;13.4;;
12721;SDS011;6425;50.316;8.114;2023-04-29T15:27:00;18.4;;;13.4;;
12721;SDS011;6425;50.316;8.114;2023-04-29T15:30:00;18.4;;;14.6;;
12721;SDS011;6425;50.316;8.114;2023-04-29T15:33:00;18.4;;;14.6;;
12721;SDS011;6425;50.316;8.114;2023-04-29T15:36:00;15.8;;;12.8;;
12721;SDS011;6425;50.316;8.114;2023-04-29T15:39:00;14.9;;;12.7;;
12721;SDS011;6425;50.316;8.114;2023-04-29T15:42:00;14.9;;;12.7;;
12721;SDS011;6425;50.316;8.114;2023-04-29T15:45:00;15.3;;;13.2;;
12721;SDS011;6425;50.316;8.114;2023-04-29T15:48:00;15.3;;;13.2;;
12721;SDS011;6425;50.316;8.114;2023-04-29T15:51:00;15.6;;;12;;
12721;SDS011;6425;50.316;8.114;2023-04-29T15:54:00;16.2;;;13.4;;
12721;SDS011;6425;50.316;8.114;2023-04-29T15:57:00;16.2;;;13.4;;
12721;SDS011;6425;50.316;8.114;2023-04-29T16:00:00;13.4;;;12;;
12721;SDS011;6425;50.316;8.114;2023-04-29T16:03:00;13.4;;;12;;
12721;SDS011;6425;50.316;8.114;2023-04-29T16:06:00;14.1;;;11.6;;
12721;SDS011;6425;50.316;8.114;2023-04-29T16:09:00;13.8;;;11.7;;
12721;SDS011;6425;50.316;8.114;2023-04-29T16:12:00;13.8;;;11.7;;
12721;SDS011;6425;50.316;8.114;2023-04-29T16:15:00;14.1;;;12.6;;
12721;SDS011;6425;50.316;8.114;2023-04-29T16:18:00;17.8;;;15.6;;
12721;SDS011;6425;50.316;8.114;2023-04-29T16:21:00;19.1;;;16.7;;
12721;SDS011;6425;50.316;8.114;2023-04-29T16:24:00;14.3;;;12.8;;
12721;SDS011;6425;50.316;8.114;2023-04-29T16:27:00;14.3;;;12.8;;
12721;SDS011;6425;50.316;8.114;2023-04-29T16:30:00;13.5;;;12;;
12721;SDS011;6425;50.316;8.114;2023-04-29T16:33:00;13.5;;;11.6;;
12721;SDS011;6425;50.316;8.114;2023-04-29T16:36:00;13.5;;;11.6;;
12721;SDS011;6425;50.316;8.114;2023-04-29T16:39:00;16.2;;;13.5;;
12721;SDS011;6425;50.316;8.114;2023-04-29T16:42:00;16.2;;;13.5;;
12721;SDS011;6425;50.316;8.114;2023-04-29T16:45:00;20.9;;;16.3;;
12721;SDS011;6425;50.316;8.114;2023-04-29T16:48:00;14.6;;;13;;
12721;SDS011;6425;50.316;8.114;2023-04-29T16:51:00;14.6;;;13;;
12721;SDS011;6425;50.316;8.114;2023-04-29T16:54:00;18.8;;;14;;
12721;SDS011;6425;50.316;8.114;2023-04-29T16:57:00;18.8;;;14;;
12721;SDS011;6425;50.316;8.114;2023-04-29T17:00:00;18.4;;;14.3;;
12721;SDS011;6425;50.316;8.114;2023-04-29T17:03:00;17.7;;;13.9;;
12721;SDS011;6425;50.316;8.114;2023-04-29T17:06:00;17.7;;;13.9;;
12721;SDS011;6425;50.316;8.114;2023-04-29T17:09:00;18.9;;;14.3;;
12721;SDS011;6425;50.316;8.114;2023-04-29T17:12:00;18.9;;;14.3;;
12721;SDS011;6425;50.316;8.114;2023-04-29T17:15:00;20.2;;;16.1;;
12721;SDS011;6425;50.316;8.114;2023-04-29T17:18:00;29;;;25.3;;
12721;SDS011;6425;50.316;8.114;2023-04-29T17:21:00;29;;;25.3;;
12721;SDS011;6425;50.316;8.114;2023-04-29T17:24:00;20.8;;;15.8;;
12721;SDS011;6425;50.316;8.114;2023-04-29T17:27:00;20.8;;;15.8;;
12721;SDS011;6425;50.316;8.114;2023-04-29T17:30:00;24;;;16.9;;
12721;SDS011;6425;50.316;8.114;2023-04-29T17:33:00;22.7;;;16.4;;
12721;SDS011;6425;50.316;8.114;2023-04-29T17:36:00;22.7;;;16.4;;
12721;SDS011;6425;50.316;8.114;2023-04-29T17:39:00;20.6;;;17.1;;
12721;SDS011;6425;50.316;8.114;2023-04-29T17:42:00;20.6;;;17.1;;
12721;SDS011;6425;50.316;8.114;2023-04-29T17:45:00;18.8;;;15.8;;
12721;SDS011;6425;50.316;8.114;2023-04-29T17:48:00;17.8;;;15.9;;
12721;SDS011;6425;50.316;8.114;2023-04-29T17:51:00;17.8;;;15.9;;
12721;SDS011;6425;50.316;8.114;2023-04-29T17:54:00;18.7;;;14.7;;
12721;SDS011;6425;50.316;8.114;2023-04-29T17:57:00;18.7;;;14.7;;
12721;SDS011;6425;50.316;8.114;2023-04-29T18:00:00;17.1;;;14.5;;
12721;SDS011;6425;50.316;8.114;2023-04-29T18:03:00;16.2;;;14.2;;
12721;SDS011;6425;50.316;8.114;2023-04-29T18:06:00;16.2;;;14.2;;
12721;SDS011;6425;50.316;8.114;2023-04-29T18:09:00;15.6;;;12.5;;
12721;SDS011;6425;50.316;8.114;2023-04-29T18:12:00;15.6;;;12.5;;
12721;SDS011;6425;50.316;8.114;2023-04-29T18:15:00;17.9;;;16;;
12721;SDS011;6425;50.316;8.114;2023-04-29T18:18:00;18.8;;;15.2;;
12721;SDS011;6425;50.316;8.114;2023-04-29T18:21:00;18.8;;;15.2;;
12721;SDS011;6425;50.316;8.114;2023-04-29T18:24:00;19.7;;;16.8;;
12721;SDS011;6425;50.316;8.114;2023-04-29T18:27:00;19.7;;;16.8;;
12721;SDS011;6425;50.316;8.114;2023-04-29T18:30:00;20.1;;;15.1;;
12721;SDS011;6425;50.316;8.114;2023-04-29T18:33:00;18.3;;;14.4;;